createdAt,value
2022-09-15T00:00:00.465Z,18.5
2022-09-15T00:01:00.963Z,18.5
2022-09-15T00:02:00.347Z,19.5
2022-09-15T00:03:00.389Z,19.5
2022-09-15T00:04:00.844Z,19.5
2022-09-15T00:05:00.623Z,19.5
2022-09-15T00:06:00.614Z,19.5
2022-09-15T00:07:00.531Z,19.6
2022-09-15T00:08:00.394Z,19.6
2022-09-15T00:09:01.355Z,19.6
2022-09-15T00:10:00.501Z,19.6
2022-09-15T00:11:08.797Z,19.6
2022-09-15T00:12:00.381Z,19.5
2022-09-15T00:13:00.373Z,19.5
2022-09-15T00:14:02.514Z,19.5
2022-09-15T00:15:00.492Z,19.5
2022-09-15T00:16:00.791Z,19.5
2022-09-15T00:17:00.387Z,18.8
2022-09-15T00:18:00.243Z,18.8
2022-09-15T00:19:00.822Z,18.8
2022-09-15T00:20:00.406Z,18.8
2022-09-15T00:21:05.084Z,18.8
2022-09-15T00:22:00.352Z,16.8
2022-09-15T00:23:00.222Z,16.8
2022-09-15T00:24:01.245Z,16.8
2022-09-15T00:25:00.232Z,16.8
2022-09-15T00:26:00.598Z,16.8
2022-09-15T00:27:00.521Z,17.0
2022-09-15T00:28:00.382Z,17.0
2022-09-15T00:29:01.476Z,17.0
2022-09-15T00:30:00.808Z,17.0
2022-09-15T00:31:04.287Z,17.0
2022-09-15T00:32:00.424Z,14.6
2022-09-15T00:33:00.220Z,14.6
2022-09-15T00:34:01.098Z,14.6
2022-09-15T00:35:00.259Z,14.6
2022-09-15T00:36:02.450Z,14.6
2022-09-15T00:37:00.233Z,15.4
2022-09-15T00:38:00.224Z,15.4
2022-09-15T00:39:00.636Z,15.4
2022-09-15T00:40:00.424Z,15.4
2022-09-15T00:41:01.002Z,15.4
2022-09-15T00:42:00.250Z,16.3
2022-09-15T00:43:00.226Z,16.3
2022-09-15T00:44:04.813Z,16.3
2022-09-15T00:45:02.226Z,16.3
2022-09-15T00:46:00.373Z,16.3
2022-09-15T00:47:18.648Z,17.4
2022-09-15T00:48:00.607Z,17.4
2022-09-15T00:49:06.093Z,17.4
2022-09-15T00:50:05.719Z,17.4
2022-09-15T00:51:03.841Z,17.4
2022-09-15T00:52:05.248Z,17.6
2022-09-15T00:53:04.687Z,17.6
2022-09-15T00:54:03.588Z,17.6
2022-09-15T00:55:06.231Z,17.6
2022-09-15T00:56:02.222Z,17.6
2022-09-15T00:57:03.668Z,17.7
2022-09-15T00:58:04.509Z,17.7
2022-09-15T00:59:04.175Z,17.7
2022-09-15T01:00:03.666Z,17.7
2022-09-15T01:01:02.375Z,17.7
2022-09-15T01:02:06.829Z,15.5
2022-09-15T01:03:00.718Z,15.5
2022-09-15T01:04:00.715Z,15.5
2022-09-15T01:05:12.040Z,15.5
2022-09-15T01:06:07.343Z,15.5
2022-09-15T01:07:04.524Z,15.4
2022-09-15T01:08:06.342Z,15.4
2022-09-15T01:09:06.485Z,15.4
2022-09-15T01:10:05.484Z,15.4
2022-09-15T01:11:00.773Z,15.4
2022-09-15T01:12:02.290Z,15.6
2022-09-15T01:13:03.471Z,15.6
2022-09-15T01:14:00.385Z,15.6
2022-09-15T01:15:00.651Z,15.6
2022-09-15T01:16:17.546Z,14.8
2022-09-15T01:17:14.304Z,14.8
2022-09-15T01:18:08.594Z,14.8
2022-09-15T01:19:11.193Z,14.8
2022-09-15T01:20:03.484Z,14.8
2022-09-15T01:21:16.019Z,14.5
2022-09-15T01:22:17.688Z,14.5
2022-09-15T01:23:20.130Z,14.5
2022-09-15T01:24:11.221Z,14.5
2022-09-15T01:25:07.303Z,14.5
2022-09-15T01:26:10.169Z,13.7
2022-09-15T01:27:40.934Z,13.7
2022-09-15T01:28:20.125Z,13.7
2022-09-15T01:29:01.227Z,13.7
2022-09-15T01:30:05.730Z,13.7
2022-09-15T01:31:11.547Z,13.0
2022-09-15T01:32:13.067Z,13.0
2022-09-15T01:33:13.426Z,13.0
2022-09-15T01:34:06.545Z,13.0
2022-09-15T01:35:09.711Z,13.0
2022-09-15T01:36:13.150Z,13.8
2022-09-15T01:37:05.715Z,13.8
2022-09-15T01:38:10.648Z,13.8
2022-09-15T01:39:12.467Z,13.8
2022-09-15T01:40:01.514Z,13.8
2022-09-15T01:41:08.386Z,13.8
2022-09-15T01:42:04.143Z,14.5
2022-09-15T01:43:01.915Z,14.5
2022-09-15T01:44:10.160Z,14.5
2022-09-15T01:45:05.583Z,14.5
2022-09-15T01:46:02.187Z,14.5
2022-09-15T01:47:05.164Z,14.7
2022-09-15T01:48:03.947Z,14.7
2022-09-15T01:49:02.516Z,14.7
2022-09-15T01:50:02.420Z,14.7
2022-09-15T01:51:02.542Z,14.7
2022-09-15T01:52:00.828Z,15.6
2022-09-15T01:53:06.792Z,15.6
2022-09-15T01:54:02.755Z,15.6
2022-09-15T01:55:05.811Z,15.6
2022-09-15T01:56:06.100Z,15.6
2022-09-15T01:57:01.177Z,15.2
2022-09-15T01:58:00.249Z,15.2
2022-09-15T01:59:00.250Z,15.2
2022-09-15T02:00:00.438Z,15.2
2022-09-15T02:01:07.687Z,16.0
2022-09-15T02:02:06.910Z,16.0
2022-09-15T02:03:05.946Z,16.0
2022-09-15T02:04:06.380Z,16.0
2022-09-15T02:05:07.027Z,16.0
2022-09-15T02:06:06.056Z,16.0
2022-09-15T02:07:14.223Z,17.5
2022-09-15T02:08:05.581Z,17.5
2022-09-15T02:09:06.521Z,17.5
2022-09-15T02:10:13.541Z,17.5
2022-09-15T02:11:11.230Z,18.9
2022-09-15T02:12:10.168Z,18.9
2022-09-15T02:13:10.134Z,18.9
2022-09-15T02:14:20.121Z,18.9
2022-09-15T02:15:05.163Z,18.9
2022-09-15T02:16:00.569Z,18.9
2022-09-15T02:17:00.414Z,20.3
2022-09-15T02:18:04.980Z,20.3
2022-09-15T02:19:16.089Z,20.3
2022-09-15T02:20:16.518Z,20.3
2022-09-15T02:21:08.634Z,20.6
2022-09-15T02:22:15.469Z,20.6
2022-09-15T02:23:07.014Z,20.6
2022-09-15T02:24:07.880Z,20.6
2022-09-15T02:25:05.474Z,20.6
2022-09-15T02:26:08.156Z,22.1
2022-09-15T02:27:02.647Z,22.1
2022-09-15T02:28:05.188Z,22.1
2022-09-15T02:29:05.317Z,22.1
2022-09-15T02:30:05.341Z,22.1
2022-09-15T02:31:03.913Z,22.1
2022-09-15T02:32:07.066Z,22.9
2022-09-15T02:33:04.258Z,22.9
2022-09-15T02:34:06.670Z,22.9
2022-09-15T02:35:03.333Z,22.9
2022-09-15T02:36:01.200Z,22.9
2022-09-15T02:37:02.136Z,21.4
2022-09-15T02:38:02.154Z,21.4
2022-09-15T02:39:06.510Z,21.4
2022-09-15T02:40:00.905Z,21.4
2022-09-15T02:41:00.962Z,21.4
2022-09-15T02:42:00.657Z,23.1
2022-09-15T02:43:02.246Z,23.1
2022-09-15T02:44:00.442Z,23.1
2022-09-15T02:45:00.395Z,23.1
2022-09-15T02:46:00.364Z,23.1
2022-09-15T02:47:01.295Z,22.8
2022-09-15T02:48:00.510Z,22.8
2022-09-15T02:49:00.317Z,22.8
2022-09-15T02:50:00.270Z,22.8
2022-09-15T02:51:00.375Z,22.8
2022-09-15T02:52:00.293Z,22.3
2022-09-15T02:53:00.347Z,22.3
2022-09-15T02:54:00.415Z,22.3
2022-09-15T02:55:00.241Z,22.3
2022-09-15T02:56:00.347Z,22.3
2022-09-15T02:57:00.342Z,20.2
2022-09-15T02:58:00.263Z,20.2
2022-09-15T02:59:00.274Z,20.2
2022-09-15T03:00:00.433Z,20.2
2022-09-15T03:01:02.211Z,20.2
2022-09-15T03:02:00.327Z,20.2
2022-09-15T03:03:00.296Z,20.2
2022-09-15T03:04:01.225Z,20.2
2022-09-15T03:05:00.386Z,20.2
2022-09-15T03:06:00.668Z,20.2
2022-09-15T03:07:00.208Z,18.9
2022-09-15T03:08:00.439Z,18.9
2022-09-15T03:09:04.350Z,18.9
2022-09-15T03:10:00.222Z,18.9
2022-09-15T03:11:00.241Z,18.9
2022-09-15T03:12:00.424Z,17.6
2022-09-15T03:13:00.408Z,17.6
2022-09-15T03:14:02.620Z,17.6
2022-09-15T03:15:00.226Z,17.6
2022-09-15T03:16:06.786Z,15.6
2022-09-15T03:17:00.846Z,15.6
2022-09-15T03:18:01.129Z,15.6
2022-09-15T03:19:00.764Z,15.6
2022-09-15T03:20:00.378Z,15.6
2022-09-15T03:21:00.245Z,15.6
2022-09-15T03:22:00.219Z,13.7
2022-09-15T03:23:00.269Z,13.7
2022-09-15T03:24:00.377Z,13.7
2022-09-15T03:25:00.693Z,13.7
2022-09-15T03:26:01.273Z,9.9
2022-09-15T03:27:00.211Z,9.9
2022-09-15T03:28:00.531Z,9.9
2022-09-15T03:29:00.266Z,9.9
2022-09-15T03:30:00.320Z,9.9
2022-09-15T03:31:00.593Z,9.9
2022-09-15T03:32:00.467Z,9.5
2022-09-15T03:33:00.224Z,9.5
2022-09-15T03:34:00.247Z,9.5
2022-09-15T03:35:00.341Z,9.5
2022-09-15T03:36:00.416Z,9.8
2022-09-15T03:37:00.221Z,9.8
2022-09-15T03:38:00.241Z,9.8
2022-09-15T03:39:00.262Z,9.8
2022-09-15T03:40:00.486Z,9.8
2022-09-15T03:41:04.136Z,10.0
2022-09-15T03:42:00.248Z,10.0
2022-09-15T03:43:00.225Z,10.0
2022-09-15T03:44:00.390Z,10.0
2022-09-15T03:45:00.305Z,10.0
2022-09-15T03:46:00.977Z,9.4
2022-09-15T03:47:01.146Z,9.4
2022-09-15T03:48:00.415Z,9.4
2022-09-15T03:49:00.236Z,9.4
2022-09-15T03:50:00.227Z,9.4
2022-09-15T03:51:01.263Z,9.2
2022-09-15T03:52:00.406Z,9.2
2022-09-15T03:53:00.782Z,9.2
2022-09-15T03:54:00.249Z,9.2
2022-09-15T03:55:00.255Z,9.2
2022-09-15T03:56:12.948Z,10.8
2022-09-15T03:57:00.280Z,10.8
2022-09-15T03:58:00.285Z,10.8
2022-09-15T03:59:02.019Z,10.8
2022-09-15T04:00:00.338Z,10.8
2022-09-15T04:01:00.289Z,9.8
2022-09-15T04:02:00.359Z,9.8
2022-09-15T04:03:00.225Z,9.8
2022-09-15T04:04:00.459Z,9.8
2022-09-15T04:05:00.235Z,9.8
2022-09-15T04:06:00.269Z,9.6
2022-09-15T04:07:00.248Z,9.6
2022-09-15T04:08:00.932Z,9.6
2022-09-15T04:09:00.224Z,9.6
2022-09-15T04:10:00.229Z,9.6
2022-09-15T04:11:04.068Z,8.4
2022-09-15T04:12:00.324Z,8.4
2022-09-15T04:13:00.219Z,8.4
2022-09-15T04:14:00.315Z,8.4
2022-09-15T04:15:00.331Z,8.4
2022-09-15T04:16:04.717Z,8.0
2022-09-15T04:17:00.228Z,8.0
2022-09-15T04:18:00.535Z,8.0
2022-09-15T04:19:00.234Z,8.0
2022-09-15T04:20:00.429Z,8.0
2022-09-15T04:21:01.682Z,7.9
2022-09-15T04:22:00.244Z,7.9
2022-09-15T04:23:00.215Z,7.9
2022-09-15T04:24:00.356Z,7.9
2022-09-15T04:25:00.274Z,7.9
2022-09-15T04:26:03.004Z,7.2
2022-09-15T04:27:00.225Z,7.2
2022-09-15T04:28:00.416Z,7.2
2022-09-15T04:29:04.288Z,7.2
2022-09-15T04:30:00.274Z,7.2
2022-09-15T04:31:04.213Z,7.3
2022-09-15T04:32:00.589Z,7.3
2022-09-15T04:33:00.216Z,7.3
2022-09-15T04:34:00.302Z,7.3
2022-09-15T04:35:00.416Z,7.3
2022-09-15T04:36:02.242Z,8.1
2022-09-15T04:37:00.249Z,8.1
2022-09-15T04:38:00.240Z,8.1
2022-09-15T04:39:00.472Z,8.1
2022-09-15T04:40:00.452Z,8.1
2022-09-15T04:41:00.676Z,9.7
2022-09-15T04:42:00.223Z,9.7
2022-09-15T04:43:00.254Z,9.7
2022-09-15T04:44:01.163Z,9.7
2022-09-15T04:45:00.285Z,9.7
2022-09-15T04:46:00.275Z,10.7
2022-09-15T04:47:00.471Z,10.7
2022-09-15T04:48:00.563Z,10.7
2022-09-15T04:49:00.222Z,10.7
2022-09-15T04:50:00.231Z,10.7
2022-09-15T04:51:01.622Z,13.5
2022-09-15T04:52:00.451Z,13.5
2022-09-15T04:53:00.240Z,13.5
2022-09-15T04:54:00.316Z,13.5
2022-09-15T04:55:00.225Z,13.5
2022-09-15T04:56:06.128Z,13.3
2022-09-15T04:57:00.574Z,13.3
2022-09-15T04:58:01.311Z,13.3
2022-09-15T04:59:03.993Z,13.3
2022-09-15T05:00:00.381Z,13.3
2022-09-15T05:01:06.248Z,12.1
2022-09-15T05:02:00.392Z,12.1
2022-09-15T05:03:00.212Z,12.1
2022-09-15T05:04:01.716Z,12.1
2022-09-15T05:05:00.241Z,12.1
2022-09-15T05:06:00.238Z,12.7
2022-09-15T05:07:00.265Z,12.7
2022-09-15T05:08:00.698Z,12.7
2022-09-15T05:09:03.620Z,12.7
2022-09-15T05:10:00.258Z,12.7
2022-09-15T05:11:02.449Z,11.9
2022-09-15T05:12:00.647Z,11.9
2022-09-15T05:13:00.334Z,11.9
2022-09-15T05:14:00.296Z,11.9
2022-09-15T05:15:00.254Z,11.9
2022-09-15T05:16:13.010Z,12.8
2022-09-15T05:17:00.229Z,12.8
2022-09-15T05:18:00.239Z,12.8
2022-09-15T05:19:01.237Z,12.8
2022-09-15T05:20:00.474Z,12.8
2022-09-15T05:21:01.994Z,11.5
2022-09-15T05:22:00.299Z,11.5
2022-09-15T05:23:00.215Z,11.5
2022-09-15T05:24:00.409Z,11.5
2022-09-15T05:25:00.247Z,11.5
2022-09-15T05:26:02.868Z,11.2
2022-09-15T05:27:00.229Z,11.2
2022-09-15T05:28:00.378Z,11.2
2022-09-15T05:29:00.254Z,11.2
2022-09-15T05:30:23.469Z,11.2
2022-09-15T05:31:00.441Z,10.4
2022-09-15T05:32:00.326Z,10.4
2022-09-15T05:33:00.230Z,10.4
2022-09-15T05:34:02.578Z,10.4
2022-09-15T05:35:00.231Z,10.4
2022-09-15T05:36:00.539Z,10.5
2022-09-15T05:37:00.494Z,10.5
2022-09-15T05:38:00.227Z,10.5
2022-09-15T05:39:00.380Z,10.5
2022-09-15T05:40:01.254Z,10.5
2022-09-15T05:41:11.188Z,10.3
2022-09-15T05:42:00.321Z,10.3
2022-09-15T05:43:00.268Z,10.3
2022-09-15T05:44:00.386Z,10.3
2022-09-15T05:45:00.230Z,10.3
2022-09-15T05:46:00.891Z,10.0
2022-09-15T05:47:00.614Z,10.0
2022-09-15T05:48:00.415Z,10.0
2022-09-15T05:49:00.267Z,10.0
2022-09-15T05:50:00.231Z,10.0
2022-09-15T05:51:00.719Z,9.3
2022-09-15T05:52:00.388Z,9.3
2022-09-15T05:53:00.285Z,9.3
2022-09-15T05:54:00.224Z,9.3
2022-09-15T05:55:00.294Z,9.3
2022-09-15T05:56:03.396Z,9.5
2022-09-15T05:57:00.242Z,9.5
2022-09-15T05:58:00.241Z,9.5
2022-09-15T05:59:01.029Z,9.5
2022-09-15T06:00:00.338Z,9.5
2022-09-15T06:01:05.344Z,9.8
2022-09-15T06:02:00.440Z,9.8
2022-09-15T06:03:00.728Z,9.8
2022-09-15T06:04:00.375Z,9.8
2022-09-15T06:05:00.224Z,9.8
2022-09-15T06:06:01.679Z,11.1
2022-09-15T06:07:00.241Z,11.1
2022-09-15T06:08:00.407Z,11.1
2022-09-15T06:09:01.032Z,11.1
2022-09-15T06:10:00.771Z,11.1
2022-09-15T06:11:02.782Z,11.6
2022-09-15T06:12:00.536Z,11.6
2022-09-15T06:13:00.356Z,11.6
2022-09-15T06:14:01.569Z,11.6
2022-09-15T06:15:00.341Z,11.6
2022-09-15T06:16:01.346Z,11.4
2022-09-15T06:17:00.293Z,11.4
2022-09-15T06:18:00.345Z,11.4
2022-09-15T06:19:00.838Z,11.4
2022-09-15T06:20:01.626Z,11.4
2022-09-15T06:21:07.939Z,10.5
2022-09-15T06:22:00.342Z,10.5
2022-09-15T06:23:00.369Z,10.5
2022-09-15T06:24:02.773Z,10.5
2022-09-15T06:25:00.578Z,10.5
2022-09-15T06:26:04.453Z,8.9
2022-09-15T06:27:00.302Z,8.9
2022-09-15T06:28:00.395Z,8.9
2022-09-15T06:29:02.391Z,8.9
2022-09-15T06:30:00.218Z,8.9
2022-09-15T06:31:00.347Z,8.5
2022-09-15T06:32:00.507Z,8.5
2022-09-15T06:33:00.719Z,8.5
2022-09-15T06:34:00.504Z,8.5
2022-09-15T06:35:00.225Z,8.5
2022-09-15T06:36:00.706Z,7.8
2022-09-15T06:37:00.262Z,7.8
2022-09-15T06:38:00.559Z,7.8
2022-09-15T06:39:00.244Z,7.8
2022-09-15T06:40:00.859Z,7.8
2022-09-15T06:41:00.222Z,7.4
2022-09-15T06:42:02.824Z,7.4
2022-09-15T06:43:00.233Z,7.4
2022-09-15T06:44:00.400Z,7.4
2022-09-15T06:45:00.447Z,7.4
2022-09-15T06:46:09.712Z,7.6
2022-09-15T06:47:00.639Z,7.6
2022-09-15T06:48:22.883Z,7.6
2022-09-15T06:49:00.410Z,7.6
2022-09-15T06:50:00.486Z,7.6
2022-09-15T06:51:03.652Z,6.4
2022-09-15T06:52:00.374Z,6.4
2022-09-15T06:53:00.208Z,6.4
2022-09-15T06:54:00.727Z,6.4
2022-09-15T06:55:00.243Z,6.4
2022-09-15T06:56:03.144Z,7.0
2022-09-15T06:57:00.282Z,7.0
2022-09-15T06:58:00.291Z,7.0
2022-09-15T06:59:00.255Z,7.0
2022-09-15T07:00:00.837Z,7.0
2022-09-15T07:01:01.910Z,6.1
2022-09-15T07:02:04.760Z,6.1
2022-09-15T07:03:00.317Z,6.1
2022-09-15T07:04:00.846Z,6.1
2022-09-15T07:05:00.217Z,6.1
2022-09-15T07:06:00.616Z,5.7
2022-09-15T07:07:00.236Z,5.7
2022-09-15T07:08:00.391Z,5.7
2022-09-15T07:09:00.331Z,5.7
2022-09-15T07:10:00.247Z,5.7
2022-09-15T07:11:00.660Z,8.2
2022-09-15T07:12:00.436Z,8.2
2022-09-15T07:13:00.225Z,8.2
2022-09-15T07:14:00.272Z,8.2
2022-09-15T07:15:00.233Z,8.2
2022-09-15T07:16:02.504Z,5.3
2022-09-15T07:17:00.267Z,5.3
2022-09-15T07:18:00.298Z,5.3
2022-09-15T07:19:00.258Z,5.3
2022-09-15T07:20:00.366Z,5.3
2022-09-15T07:21:03.133Z,5.0
2022-09-15T07:22:00.241Z,5.0
2022-09-15T07:23:00.232Z,5.0
2022-09-15T07:24:05.004Z,5.0
2022-09-15T07:25:00.228Z,5.0
2022-09-15T07:26:05.206Z,5.3
2022-09-15T07:27:00.217Z,5.3
2022-09-15T07:28:00.357Z,5.3
2022-09-15T07:29:02.734Z,5.3
2022-09-15T07:30:00.226Z,5.3
2022-09-15T07:31:00.518Z,4.7
2022-09-15T07:32:00.591Z,4.7
2022-09-15T07:33:00.275Z,4.7
2022-09-15T07:34:01.159Z,4.7
2022-09-15T07:35:00.267Z,4.7
2022-09-15T07:36:01.406Z,4.3
2022-09-15T07:37:00.250Z,4.3
2022-09-15T07:38:00.259Z,4.3
2022-09-15T07:39:02.067Z,4.3
2022-09-15T07:40:00.493Z,4.3
2022-09-15T07:41:03.041Z,7.8
2022-09-15T07:42:00.222Z,7.8
2022-09-15T07:43:00.248Z,7.8
2022-09-15T07:44:00.633Z,7.8
2022-09-15T07:45:00.223Z,7.8
2022-09-15T07:46:00.974Z,4.8
2022-09-15T07:47:00.243Z,4.8
2022-09-15T07:48:00.601Z,4.8
2022-09-15T07:49:00.279Z,4.8
2022-09-15T07:50:00.251Z,4.8
2022-09-15T07:51:00.253Z,7.3
2022-09-15T07:52:00.414Z,7.3
2022-09-15T07:53:00.237Z,7.3
2022-09-15T07:54:00.273Z,7.3
2022-09-15T07:55:00.232Z,7.3
2022-09-15T07:56:00.344Z,6.8
2022-09-15T07:57:00.633Z,6.8
2022-09-15T07:58:00.431Z,6.8
2022-09-15T07:59:00.239Z,6.8
2022-09-15T08:00:00.597Z,6.8
2022-09-15T08:01:01.327Z,5.0
2022-09-15T08:02:00.298Z,5.0
2022-09-15T08:03:00.211Z,5.0
2022-09-15T08:04:00.351Z,5.0
2022-09-15T08:05:00.250Z,5.0
2022-09-15T08:06:01.968Z,4.8
2022-09-15T08:07:00.243Z,4.8
2022-09-15T08:08:00.393Z,4.8
2022-09-15T08:09:01.206Z,4.8
2022-09-15T08:10:00.224Z,4.8
2022-09-15T08:11:04.196Z,4.7
2022-09-15T08:12:00.359Z,4.7
2022-09-15T08:13:00.442Z,4.7
2022-09-15T08:14:00.281Z,4.7
2022-09-15T08:15:00.254Z,4.7
2022-09-15T08:16:08.310Z,5.0
2022-09-15T08:17:00.728Z,5.0
2022-09-15T08:18:00.218Z,5.0
2022-09-15T08:19:00.266Z,5.0
2022-09-15T08:20:00.502Z,5.0
2022-09-15T08:21:04.603Z,4.8
2022-09-15T08:22:01.308Z,4.8
2022-09-15T08:23:00.240Z,4.8
2022-09-15T08:24:00.311Z,4.8
2022-09-15T08:25:00.299Z,4.8
2022-09-15T08:26:00.584Z,4.5
2022-09-15T08:27:00.226Z,4.5
2022-09-15T08:28:00.340Z,4.5
2022-09-15T08:29:00.255Z,4.5
2022-09-15T08:30:00.234Z,4.5
2022-09-15T08:31:03.083Z,4.8
2022-09-15T08:32:00.369Z,4.8
2022-09-15T08:33:00.224Z,4.8
2022-09-15T08:34:00.262Z,4.8
2022-09-15T08:35:01.276Z,4.8
2022-09-15T08:36:06.312Z,5.0
2022-09-15T08:37:00.241Z,5.0
2022-09-15T08:38:00.219Z,5.0
2022-09-15T08:39:01.331Z,5.0
2022-09-15T08:40:00.474Z,5.0
2022-09-15T08:41:03.783Z,5.3
2022-09-15T08:42:01.558Z,5.3
2022-09-15T08:43:14.370Z,5.3
2022-09-15T08:44:07.786Z,5.3
2022-09-15T08:45:06.316Z,5.3
2022-09-15T08:46:05.028Z,5.1
2022-09-15T08:47:13.502Z,5.1
2022-09-15T08:48:03.822Z,5.1
2022-09-15T08:49:11.898Z,5.1
2022-09-15T08:50:10.166Z,5.1
2022-09-15T08:51:05.924Z,5.3
2022-09-15T08:52:05.577Z,5.3
2022-09-15T08:53:06.289Z,5.3
2022-09-15T08:54:09.104Z,5.3
2022-09-15T08:55:05.903Z,5.3
2022-09-15T08:56:07.181Z,4.8
2022-09-15T08:57:03.357Z,4.8
2022-09-15T08:58:00.260Z,4.8
2022-09-15T08:59:00.428Z,4.8
2022-09-15T09:00:00.362Z,4.8
2022-09-15T09:01:10.276Z,4.6
2022-09-15T09:02:11.217Z,4.6
2022-09-15T09:03:10.240Z,4.6
2022-09-15T09:04:04.500Z,4.6
2022-09-15T09:05:19.626Z,4.6
2022-09-15T09:06:10.089Z,4.9
2022-09-15T09:07:10.212Z,4.9
2022-09-15T09:08:18.463Z,4.9
2022-09-15T09:09:14.500Z,4.9
2022-09-15T09:10:14.300Z,4.9
2022-09-15T09:11:17.696Z,4.8
2022-09-15T09:12:18.257Z,4.8
2022-09-15T09:13:18.296Z,4.8
2022-09-15T09:14:13.580Z,4.8
2022-09-15T09:15:03.477Z,4.8
2022-09-15T09:16:11.868Z,6.6
2022-09-15T09:17:20.147Z,6.6
2022-09-15T09:18:20.124Z,6.6
2022-09-15T09:19:09.317Z,6.6
2022-09-15T09:20:20.120Z,6.6
2022-09-15T09:21:01.216Z,6.1
2022-09-15T09:22:08.307Z,6.1
2022-09-15T09:23:06.735Z,6.1
2022-09-15T09:24:04.390Z,6.1
2022-09-15T09:25:11.631Z,6.1
2022-09-15T09:26:00.401Z,5.8
2022-09-15T09:27:00.258Z,5.8
2022-09-15T09:28:00.817Z,5.8
2022-09-15T09:29:09.140Z,5.8
2022-09-15T09:30:09.498Z,5.8
2022-09-15T09:31:02.808Z,5.3
2022-09-15T09:32:02.323Z,5.3
2022-09-15T09:33:15.137Z,5.3
2022-09-15T09:34:13.457Z,5.3
2022-09-15T09:35:04.076Z,5.3
2022-09-15T09:36:00.512Z,4.2
2022-09-15T09:37:10.447Z,4.2
2022-09-15T09:38:00.959Z,4.2
2022-09-15T09:39:01.640Z,4.2
2022-09-15T09:40:00.507Z,4.2
2022-09-15T09:41:02.940Z,4.7
2022-09-15T09:42:01.612Z,4.7
2022-09-15T09:43:00.258Z,4.7
2022-09-15T09:44:02.181Z,4.7
2022-09-15T09:45:00.298Z,4.7
2022-09-15T09:46:00.312Z,5.8
2022-09-15T09:47:01.084Z,5.8
2022-09-15T09:48:05.503Z,5.8
2022-09-15T09:49:09.853Z,5.8
2022-09-15T09:50:00.310Z,5.8
2022-09-15T09:51:00.268Z,5.5
2022-09-15T09:52:01.699Z,5.5
2022-09-15T09:53:18.960Z,5.5
2022-09-15T09:54:05.253Z,5.5
2022-09-15T09:55:02.704Z,5.5
2022-09-15T09:56:11.193Z,5.5
2022-09-15T09:57:13.427Z,5.5
2022-09-15T09:58:12.378Z,5.5
2022-09-15T09:59:00.766Z,5.5
2022-09-15T10:00:00.453Z,5.5
2022-09-15T10:01:08.380Z,6.7
2022-09-15T10:02:10.193Z,6.7
2022-09-15T10:03:13.758Z,6.7
2022-09-15T10:04:11.974Z,6.7
2022-09-15T10:05:03.546Z,6.7
2022-09-15T10:06:11.176Z,5.9
2022-09-15T10:07:00.238Z,5.9
2022-09-15T10:08:01.408Z,5.9
2022-09-15T10:09:06.633Z,5.9
2022-09-15T10:10:00.906Z,5.9
2022-09-15T10:11:04.730Z,6.2
2022-09-15T10:12:02.166Z,6.2
2022-09-15T10:13:02.332Z,6.2
2022-09-15T10:14:00.790Z,6.2
2022-09-15T10:15:03.350Z,6.2
2022-09-15T10:16:03.513Z,7.7
2022-09-15T10:17:07.807Z,7.7
2022-09-15T10:18:00.691Z,7.7
2022-09-15T10:19:00.529Z,7.7
2022-09-15T10:20:02.039Z,7.7
2022-09-15T10:21:03.673Z,17.4
2022-09-15T10:22:01.673Z,17.4
2022-09-15T10:23:03.602Z,17.4
2022-09-15T10:24:20.152Z,17.4
2022-09-15T10:25:01.808Z,17.4
2022-09-15T10:26:20.125Z,4.5
2022-09-15T10:27:20.119Z,4.5
2022-09-15T10:28:07.517Z,4.5
2022-09-15T10:29:12.897Z,4.5
2022-09-15T10:30:15.831Z,4.5
2022-09-15T10:31:10.324Z,4.9
2022-09-15T10:32:24.809Z,4.9
2022-09-15T10:33:18.992Z,4.9
2022-09-15T10:34:20.126Z,4.9
2022-09-15T10:35:11.460Z,4.9
2022-09-15T10:36:12.378Z,5.7
2022-09-15T10:37:05.365Z,5.7
2022-09-15T10:38:12.028Z,5.7
2022-09-15T10:39:18.442Z,5.7
2022-09-15T10:40:14.749Z,5.7
2022-09-15T10:41:10.159Z,4.4
2022-09-15T10:42:10.178Z,4.4
2022-09-15T10:43:15.920Z,4.4
2022-09-15T10:44:20.119Z,4.4
2022-09-15T10:45:11.229Z,4.4
2022-09-15T10:46:00.294Z,4.8
2022-09-15T10:47:20.146Z,4.8
2022-09-15T10:48:10.167Z,4.8
2022-09-15T10:49:19.419Z,4.8
2022-09-15T10:50:14.961Z,4.8
2022-09-15T10:51:11.442Z,4.6
2022-09-15T10:52:20.132Z,4.6
2022-09-15T10:53:11.559Z,4.6
2022-09-15T10:54:17.398Z,4.6
2022-09-15T10:55:13.427Z,4.6
2022-09-15T10:56:18.018Z,6.1
2022-09-15T10:57:13.409Z,6.1
2022-09-15T10:58:11.179Z,6.1
2022-09-15T10:59:10.649Z,6.1
2022-09-15T11:00:07.921Z,6.1
2022-09-15T11:01:11.336Z,4.6
2022-09-15T11:02:03.506Z,4.6
2022-09-15T11:03:18.213Z,4.6
2022-09-15T11:04:10.183Z,4.6
2022-09-15T11:05:21.959Z,4.6
2022-09-15T11:06:09.748Z,4.1
2022-09-15T11:07:10.007Z,4.1
2022-09-15T11:08:11.175Z,4.1
2022-09-15T11:09:10.780Z,4.1
2022-09-15T11:10:15.002Z,4.1
2022-09-15T11:11:17.435Z,4.1
2022-09-15T11:12:15.386Z,4.1
2022-09-15T11:13:08.255Z,4.1
2022-09-15T11:14:17.143Z,4.1
2022-09-15T11:15:13.420Z,4.1
2022-09-15T11:16:17.565Z,4.7
2022-09-15T11:17:16.556Z,4.7
2022-09-15T11:18:20.150Z,4.7
2022-09-15T11:19:20.120Z,4.7
2022-09-15T11:20:19.763Z,4.7
2022-09-15T11:21:18.015Z,4.4
2022-09-15T11:22:10.116Z,4.4
2022-09-15T11:23:10.295Z,4.4
2022-09-15T11:24:17.541Z,4.4
2022-09-15T11:25:11.668Z,4.4
2022-09-15T11:26:06.438Z,4.7
2022-09-15T11:27:15.007Z,4.7
2022-09-15T11:28:09.695Z,4.7
2022-09-15T11:29:10.252Z,4.7
2022-09-15T11:30:15.375Z,4.7
2022-09-15T11:31:06.041Z,4.0
2022-09-15T11:32:10.200Z,4.0
2022-09-15T11:33:06.083Z,4.0
2022-09-15T11:34:10.556Z,4.0
2022-09-15T11:35:10.163Z,4.0
2022-09-15T11:36:07.676Z,4.2
2022-09-15T11:37:07.990Z,4.2
2022-09-15T11:38:20.422Z,4.2
2022-09-15T11:39:11.605Z,4.2
2022-09-15T11:40:11.839Z,4.2
2022-09-15T11:41:20.126Z,3.8
2022-09-15T11:42:07.138Z,3.8
2022-09-15T11:43:04.497Z,3.8
2022-09-15T11:44:20.154Z,3.8
2022-09-15T11:45:01.732Z,3.8
2022-09-15T11:46:05.148Z,3.8
2022-09-15T11:47:17.533Z,3.8
2022-09-15T11:48:12.298Z,3.8
2022-09-15T11:49:05.912Z,3.8
2022-09-15T11:50:10.172Z,3.8
2022-09-15T11:51:01.891Z,4.6
2022-09-15T11:52:09.293Z,4.6
2022-09-15T11:53:08.650Z,4.6
2022-09-15T11:54:07.630Z,4.6
2022-09-15T11:55:12.458Z,4.6
2022-09-15T11:56:20.121Z,4.8
2022-09-15T11:57:00.481Z,4.8
2022-09-15T11:58:21.044Z,4.8
2022-09-15T11:59:04.262Z,4.8
2022-09-15T12:00:04.430Z,4.8
2022-09-15T12:01:12.291Z,4.3
2022-09-15T12:02:12.803Z,4.3
2022-09-15T12:03:16.122Z,4.3
2022-09-15T12:04:06.575Z,4.3
2022-09-15T12:05:13.106Z,4.3
2022-09-15T12:06:06.752Z,3.8
2022-09-15T12:07:14.410Z,3.8
2022-09-15T12:08:08.282Z,3.8
2022-09-15T12:09:03.464Z,3.8
2022-09-15T12:10:12.689Z,3.8
2022-09-15T12:11:05.948Z,4.0
2022-09-15T12:12:06.313Z,4.0
2022-09-15T12:13:00.900Z,4.0
2022-09-15T12:14:03.007Z,4.0
2022-09-15T12:15:00.246Z,4.0
2022-09-15T12:16:01.005Z,3.6
2022-09-15T12:17:02.808Z,3.6
2022-09-15T12:18:06.459Z,3.6
2022-09-15T12:19:09.818Z,3.6
2022-09-15T12:20:06.809Z,3.6
2022-09-15T12:21:09.255Z,3.9
2022-09-15T12:22:14.753Z,3.9
2022-09-15T12:23:20.122Z,3.9
2022-09-15T12:24:12.600Z,3.9
2022-09-15T12:25:08.095Z,3.9
2022-09-15T12:26:14.212Z,4.2
2022-09-15T12:27:00.595Z,4.2
2022-09-15T12:28:20.282Z,4.2
2022-09-15T12:29:03.333Z,4.2
2022-09-15T12:30:00.329Z,4.2
2022-09-15T12:31:20.136Z,4.1
2022-09-15T12:32:20.144Z,4.1
2022-09-15T12:33:20.131Z,4.1
2022-09-15T12:34:00.348Z,4.1
2022-09-15T12:35:17.598Z,4.1
2022-09-15T12:36:20.184Z,4.7
2022-09-15T12:37:11.591Z,4.7
2022-09-15T12:38:00.255Z,4.7
2022-09-15T12:39:02.227Z,4.7
2022-09-15T12:40:00.764Z,4.7
2022-09-15T12:41:00.336Z,4.8
2022-09-15T12:42:00.295Z,4.8
2022-09-15T12:43:11.585Z,4.8
2022-09-15T12:44:13.520Z,4.8
2022-09-15T12:45:20.405Z,4.8
2022-09-15T12:46:01.121Z,4.9
2022-09-15T12:47:03.264Z,4.9
2022-09-15T12:48:09.669Z,4.9
2022-09-15T12:49:02.271Z,4.9
2022-09-15T12:50:14.196Z,4.9
2022-09-15T12:51:04.621Z,5.0
2022-09-15T12:52:03.652Z,5.0
2022-09-15T12:53:11.451Z,5.0
2022-09-15T12:54:02.754Z,5.0
2022-09-15T12:55:02.374Z,5.0
2022-09-15T12:56:04.171Z,5.3
2022-09-15T12:57:00.963Z,5.3
2022-09-15T12:58:07.214Z,5.3
2022-09-15T12:59:06.767Z,5.3
2022-09-15T13:00:20.156Z,5.3
2022-09-15T13:01:18.638Z,5.0
2022-09-15T13:02:00.387Z,5.0
2022-09-15T13:04:01.262Z,5.0
2022-09-15T13:05:00.275Z,5.0
2022-09-15T13:06:10.176Z,5.5
2022-09-15T13:07:17.559Z,5.5
2022-09-15T13:08:00.347Z,5.5
2022-09-15T13:09:00.244Z,5.5
2022-09-15T13:10:01.259Z,5.5
2022-09-15T13:11:07.630Z,5.4
2022-09-15T13:12:03.559Z,5.4
2022-09-15T13:13:09.510Z,5.4
2022-09-15T13:14:03.483Z,5.4
2022-09-15T13:15:02.831Z,5.4
2022-09-15T13:16:01.403Z,6.8
2022-09-15T13:17:13.247Z,6.8
2022-09-15T13:18:04.548Z,6.8
2022-09-15T13:19:07.736Z,6.8
2022-09-15T13:20:08.532Z,6.8
2022-09-15T13:21:06.555Z,6.2
2022-09-15T13:22:10.163Z,6.2
2022-09-15T13:23:02.084Z,6.2
2022-09-15T13:24:03.967Z,6.2
2022-09-15T13:25:10.245Z,6.2
2022-09-15T13:26:02.360Z,5.4
2022-09-15T13:27:01.973Z,5.4
2022-09-15T13:28:02.491Z,5.4
2022-09-15T13:29:01.470Z,5.4
2022-09-15T13:30:13.622Z,5.4
2022-09-15T13:31:18.228Z,5.3
2022-09-15T13:32:16.958Z,5.3
2022-09-15T13:33:20.160Z,5.3
2022-09-15T13:35:18.560Z,5.3
2022-09-15T13:36:07.828Z,5.0
2022-09-15T13:38:23.757Z,5.0